Time;durP1;ratioP1;P1;durP2;ratioP2;P2;SDS_P1;SDS_P2;PMS_P1;PMS_P2;Temp;Humidity;BMP_temperature;BMP_pressure;BME280_temperature;BME280_humidity;BME280_pressure;Samples;Min_cycle;Max_cycle;Signal;HPM_P1;HPM_P2
2023/05/05 07:01:37;;;;;;;0.82;0.80;;;23.60;99.90;25.90;101555.00;;;;6278127;22;20259;-70
2023/05/05 07:04:27;;;;;;;0.17;0.17;;;22.70;99.90;24.70;101572.00;;;;6251001;22;20169;-70
2023/05/05 07:06:58;;;;;;;0.17;0.17;;;21.70;99.90;24.20;101502.00;;;;6251795;22;20148;-71
2023/05/05 07:09:37;;;;;;;0.68;0.65;;;21.10;99.90;20.50;101516.00;;;;6250858;22;20133;-70
2023/05/05 07:12:11;;;;;;;2.25;0.73;;;19.00;99.90;21.70;101446.00;;;;6226075;22;20161;-70
2023/05/05 07:14:58;;;;;;;0.68;0.68;;;18.40;99.90;20.50;101443.00;;;;6251759;22;20498;-70
2023/05/05 07:17:35;;;;;;;0.40;0.40;;;18.40;99.90;20.30;101417.00;;;;6205981;22;20214;-70
2023/05/05 07:20:24;;;;;;;0.22;0.22;;;18.00;99.90;22.60;101471.00;;;;6252054;22;20137;-70
2023/05/05 07:23:07;;;;;;;0.10;0.10;;;18.40;99.90;24.10;101420.00;;;;6225754;22;20184;-71
2023/05/05 07:25:54;;;;;;;0.10;0.10;;;19.50;99.90;22.50;101458.00;;;;6278169;22;20138;-70
2023/05/05 07:28:44;;;;;;;0.10;0.10;;;19.30;99.90;24.40;101494.00;;;;6225973;22;20244;-71
2023/05/05 07:31:31;;;;;;;1.05;1.05;;;20.00;99.90;21.00;101479.00;;;;6278351;22;20159;-70
2023/05/05 07:34:06;;;;;;;0.10;0.10;;;19.10;99.90;22.20;101466.00;;;;6277458;22;20183;-71
2023/05/05 07:36:44;;;;;;;0.10;0.10;;;18.80;99.90;21.50;101486.00;;;;6227175;22;20630;-70
2023/05/05 07:39:19;;;;;;;0.70;0.60;;;18.80;99.90;20.10;101471.00;;;;6252041;22;20183;-70
2023/05/05 07:41:57;;;;;;;1.10;1.00;;;18.20;99.90;20.80;101451.00;;;;6225377;22;20239;-70
2023/05/05 07:44:46;;;;;;;2.37;1.13;;;18.00;99.90;21.60;101508.00;;;;6250176;22;20187;-70
2023/05/05 07:47:33;;;;;;;4.90;1.77;;;18.20;99.90;22.20;101509.00;;;;6277960;22;20672;-70
2023/05/05 07:50:14;;;;;;;1.98;0.68;;;18.50;99.90;22.10;101487.00;;;;6250353;22;20597;-70
2023/05/05 07:53:02;;;;;;;0.10;0.10;;;18.50;99.90;23.10;101509.00;;;;6251825;22;20172;-70
2023/05/05 07:55:37;;;;;;;0.20;0.20;;;19.00;99.90;21.80;101501.00;;;;6278229;22;20141;-70
2023/05/05 07:58:29;;;;;;;0.30;0.30;;;18.80;99.90;22.70;101441.00;;;;6251077;22;20152;-70
2023/05/05 08:01:05;;;;;;;1.50;1.40;;;18.80;99.90;22.70;101500.00;;;;6247162;22;20201;-70
2023/05/05 08:03:39;;;;;;;0.10;0.10;;;19.10;99.90;23.10;101509.00;;;;6279056;22;20176;-70
2023/05/05 08:06:32;;;;;;;4.13;2.10;;;19.40;99.90;20.80;101445.00;;;;6277680;22;20143;-71
2023/05/05 08:09:30;;;;;;;0.20;0.20;;;18.70;99.90;21.00;101428.00;;;;6266256;22;20164;-70
2023/05/05 08:12:07;;;;;;;0.80;0.80;;;18.00;99.90;21.00;101419.00;;;;6244094;22;20179;-70
2023/05/05 08:14:45;;;;;;;0.35;0.35;;;18.00;99.90;21.10;101494.00;;;;6277957;22;20139;-70
2023/05/05 08:17:45;;;;;;;0.43;0.28;;;18.00;99.90;20.20;101496.00;;;;6252194;22;20212;-70
2023/05/05 08:20:18;;;;;;;3.40;1.13;;;17.70;99.90;20.00;101503.00;;;;6267670;22;20552;-70
2023/05/05 08:23:36;;;;;;;0.50;0.30;;;17.80;99.90;21.50;101511.00;;;;6250696;22;20180;-70
2023/05/05 08:26:25;;;;;;;2.53;1.17;;;18.00;99.90;21.00;101428.00;;;;6276653;22;20156;-70
2023/05/05 08:28:59;;;;;;;0.70;0.70;;;18.30;99.90;20.60;101418.00;;;;6276106;22;20167;-70
2023/05/05 08:31:33;;;;;;;0.17;0.17;;;18.00;99.90;21.40;101502.00;;;;6276194;22;20226;-70
2023/05/05 08:34:17;;;;;;;0.10;0.10;;;18.00;99.90;21.70;101504.00;;;;6276583;22;20145;-70
2023/05/05 08:37:10;;;;;;;0.35;0.35;;;18.20;99.90;21.80;101484.00;;;;6276002;22;20141;-71
2023/05/05 08:39:57;;;;;;;0.10;0.10;;;18.60;99.90;21.90;101492.00;;;;6275315;22;20599;-70
2023/05/05 08:42:46;;;;;;;0.32;0.32;;;18.60;99.90;21.10;101482.00;;;;6277260;22;20635;-70
2023/05/05 08:45:56;;;;;;;0.40;0.40;;;18.30;99.90;22.60;101501.00;;;;6251064;22;20164;-70
2023/05/05 08:49:02;;;;;;;0.10;0.10;;;18.50;99.90;22.00;101498.00;;;;6233849;22;20167;-70
2023/05/05 08:51:51;;;;;;;0.10;0.10;;;19.10;99.90;22.70;101495.00;;;;6271929;22;20168;-70
2023/05/05 08:54:29;;;;;;;0.10;0.10;;;19.20;99.90;22.50;101462.00;;;;6276378;22;20145;-70
2023/05/05 08:56:58;;;;;;;0.10;0.10;;;19.20;99.90;23.10;101494.00;;;;6251154;22;20156;-70
2023/05/05 08:59:37;;;;;;;0.15;0.15;;;19.20;99.90;22.10;101506.00;;;;6269620;22;20173;-70
2023/05/05 09:02:05;;;;;;;0.10;0.10;;;19.10;99.90;20.60;101441.00;;;;6219262;23;20259;-70
2023/05/05 09:04:47;;;;;;;0.55;0.55;;;18.30;99.90;19.50;101474.00;;;;6219951;23;20149;-70
2023/05/05 09:07:25;;;;;;;3.17;1.37;;;17.60;99.90;19.80;101486.00;;;;6195413;23;20162;-69
2023/05/05 09:09:58;;;;;;;0.13;0.13;;;17.40;99.90;21.10;101434.00;;;;6219730;23;20190;-69
2023/05/05 09:12:49;;;;;;;0.10;0.10;;;17.50;99.90;21.20;101493.00;;;;6219868;23;20162;-69
2023/05/05 09:15:31;;;;;;;0.20;0.20;;;17.60;99.90;21.10;101476.00;;;;6246589;23;20163;-69
2023/05/05 09:18:21;;;;;;;2.23;0.70;;;17.70;99.90;20.10;101466.00;;;;6219752;23;20147;-69
2023/05/05 09:21:01;;;;;;;0.30;0.30;;;17.40;99.90;19.90;101460.00;;;;6198426;23;20166;-69
2023/05/05 09:23:30;;;;;;;0.30;0.30;;;17.00;99.90;20.20;101461.00;;;;6220222;23;20187;-69
2023/05/05 09:26:10;;;;;;;0.17;0.17;;;17.10;99.90;20.20;101473.00;;;;6246698;23;20184;-69
2023/05/05 09:29:00;;;;;;;0.10;0.10;;;17.00;99.90;19.60;101454.00;;;;6194962;23;20170;-69
2023/05/05 09:32:04;;;;;;;0.40;0.40;;;16.90;99.90;19.40;101449.00;;;;6219993;23;20146;-69
2023/05/05 09:35:02;;;;;;;0.20;0.20;;;16.70;99.90;20.00;101486.00;;;;6212964;23;20220;-69
2023/05/05 09:37:47;;;;;;;0.50;0.50;;;16.80;99.90;20.60;101501.00;;;;6206868;23;20499;-69
2023/05/05 09:40:19;;;;;;;0.20;0.20;;;16.90;99.90;20.30;101520.00;;;;6219956;23;20189;-69
2023/05/05 09:43:09;;;;;;;0.30;0.30;;;17.00;99.90;20.50;101496.00;;;;6220180;23;20206;-69
2023/05/05 09:45:40;;;;;;;0.10;0.10;;;17.10;99.90;22.10;101512.00;;;;6219435;23;20148;-69
2023/05/05 09:48:27;;;;;;;0.10;0.10;;;17.90;99.90;22.10;101497.00;;;;6194115;23;20164;-69
2023/05/05 09:51:28;;;;;;;0.10;0.10;;;18.20;99.90;22.30;101493.00;;;;6216979;23;20172;-69
2023/05/05 09:54:08;;;;;;;0.10;0.10;;;18.60;99.90;22.40;101500.00;;;;6219595;23;20161;-69
2023/05/05 09:56:53;;;;;;;0.10;0.10;;;18.60;99.90;22.40;101499.00;;;;6246685;23;20176;-69
2023/05/05 09:59:42;;;;;;;0.10;0.10;;;19.00;99.90;21.70;101489.00;;;;6226349;22;20199;-69
2023/05/05 10:02:38;;;;;;;0.20;0.20;;;19.00;99.90;22.90;101500.00;;;;6273170;22;20242;-70
2023/05/05 10:05:22;;;;;;;0.10;0.10;;;19.40;99.90;23.50;101497.00;;;;6249377;22;20165;-70
2023/05/05 10:08:15;;;;;;;0.10;0.10;;;20.00;99.90;22.30;101453.00;;;;6275297;22;20157;-70
2023/05/05 10:11:05;;;;;;;0.45;0.20;;;19.80;99.90;21.10;101476.00;;;;6275382;22;20144;-69
2023/05/05 10:13:42;;;;;;;0.10;0.10;;;19.00;99.90;22.90;101477.00;;;;6275340;22;20149;-70
2023/05/05 10:16:35;;;;;;;0.20;0.20;;;19.40;99.90;23.40;101497.00;;;;6275059;22;20596;-70
2023/05/05 10:19:13;;;;;;;0.10;0.10;;;19.90;99.90;23.10;101473.00;;;;6275340;22;20156;-70
2023/05/05 10:34:05;;;;;;;0.10;0.10;;;19.30;99.90;22.30;101463.00;;;;5030373;28;20514;-70
2023/05/05 10:36:35;;;;;;;2.17;1.15;;;19.40;99.90;22.00;101464.00;;;;5009732;28;20714;-70
2023/05/05 10:39:11;;;;;;;1.38;0.82;;;19.30;99.90;21.80;101457.00;;;;5042706;28;20583;-70
2023/05/05 10:42:03;;;;;;;0.10;0.10;;;19.40;99.90;21.50;101461.00;;;;5024996;28;20626;-70
2023/05/05 10:44:37;;;;;;;0.10;0.10;;;19.20;99.90;22.60;101482.00;;;;4998799;28;20175;-70
2023/05/05 10:47:04;;;;;;;0.10;0.10;;;19.50;99.90;23.10;101408.00;;;;5009495;28;20387;-70
2023/05/05 10:49:52;;;;;;;3.25;0.82;;;19.70;99.90;23.80;101474.00;;;;5025664;28;20184;-70
2023/05/05 10:52:46;;;;;;;1.20;1.08;;;19.90;99.90;21.60;101451.00;;;;5008069;28;20317;-70
2023/05/05 10:55:36;;;;;;;1.63;1.55;;;19.80;99.90;20.40;101436.00;;;;5006835;28;20192;-70
2023/05/05 10:58:34;;;;;;;5.40;2.20;;;18.50;99.90;22.00;101458.00;;;;5010687;28;20179;-70
2023/05/05 11:01:30;;;;;;;0.30;0.30;;;18.80;99.90;21.50;101459.00;;;;4990720;28;20195;-70
2023/05/05 11:04:38;;;;;;;1.35;1.08;;;18.40;99.90;20.30;101376.00;;;;5000184;28;20219;-70
2023/05/05 11:07:20;;;;;;;2.00;1.83;;;18.20;99.90;20.00;101441.00;;;;4969127;28;20188;-70
2023/05/05 11:10:44;;;;;;;19.95;1.80;;;17.90;99.90;20.20;101452.00;;;;4968623;28;20196;-70
2023/05/05 11:13:48;;;;;;;2.28;1.77;;;17.70;99.90;20.00;101404.00;;;;4898845;29;20804;-70
2023/05/05 11:17:03;;;;;;;0.70;0.70;;;17.90;99.90;20.90;101448.00;;;;4915357;29;20580;-70
2023/05/05 11:19:52;;;;;;;2.78;1.83;;;17.90;99.90;20.20;101450.00;;;;4917986;29;20354;-70
2023/05/05 11:23:03;;;;;;;1.23;1.13;;;18.20;99.90;21.40;101464.00;;;;4926655;29;20248;-70
2023/05/05 11:25:53;;;;;;;0.15;0.15;;;18.30;99.90;23.10;101485.00;;;;5005043;28;20282;-70
2023/05/05 11:28:57;;;;;;;0.10;0.10;;;19.40;99.90;24.00;101448.00;;;;5008739;28;20183;-70
2023/05/05 11:32:12;;;;;;;0.10;0.10;;;20.00;99.90;24.80;101524.00;;;;5032534;28;20226;-70
2023/05/05 11:35:21;;;;;;;0.10;0.10;;;20.90;99.90;25.40;101522.00;;;;5024780;28;20188;-70
2023/05/05 11:38:19;;;;;;;0.10;0.10;;;21.50;99.90;26.00;101519.00;;;;5007974;28;20729;-70
2023/05/05 11:41:13;;;;;;;0.50;0.50;;;21.80;99.90;26.00;101525.00;;;;5002743;28;20286;-70
2023/05/05 11:44:12;;;;;;;0.20;0.20;;;22.00;99.90;25.10;101496.00;;;;4984431;28;20201;-70
2023/05/05 11:47:04;;;;;;;0.10;0.10;;;21.50;99.90;24.70;101508.00;;;;4972453;28;20730;-70
2023/05/05 11:49:50;;;;;;;0.10;0.10;;;21.20;99.90;25.00;101497.00;;;;4989688;28;20248;-70
2023/05/05 11:52:59;;;;;;;0.10;0.10;;;21.00;99.90;25.00;101553.00;;;;5027801;28;20714;-70
2023/05/05 11:56:06;;;;;;;0.20;0.15;;;20.90;99.90;22.50;101435.00;;;;4991365;28;20633;-70
2023/05/05 11:59:25;;;;;;;0.30;0.30;;;19.50;99.90;22.90;101419.00;;;;5027484;28;20191;-69
2023/05/05 12:02:15;;;;;;;0.10;0.10;;;19.50;99.90;24.30;101434.00;;;;4974983;28;20201;-70
2023/05/05 12:05:18;;;;;;;0.10;0.10;;;20.20;99.90;24.20;101440.00;;;;4976848;28;20205;-70
2023/05/05 12:08:27;;;;;;;0.10;0.10;;;20.70;99.90;23.20;101467.00;;;;4974056;28;20211;-70
2023/05/05 12:11:24;;;;;;;0.77;0.77;;;20.60;99.90;23.60;101452.00;;;;4992724;28;20686;-70
2023/05/05 12:14:26;;;;;;;1.48;0.57;;;20.70;99.90;21.80;101443.00;;;;4971961;28;20188;-70
2023/05/05 12:17:18;;;;;;;0.30;0.30;;;19.90;99.90;21.30;101405.00;;;;4974278;28;20266;-69
2023/05/05 12:20:08;;;;;;;0.10;0.10;;;19.30;99.90;23.80;101437.00;;;;4989853;28;20223;-70
2023/05/05 12:23:03;;;;;;;0.17;0.17;;;20.00;99.90;24.00;101370.00;;;;4993588;28;20185;-70
2023/05/05 12:26:26;;;;;;;0.10;0.10;;;20.60;99.90;25.20;101488.00;;;;4994306;28;20192;-70
2023/05/05 12:29:23;;;;;;;0.10;0.10;;;21.30;99.90;25.00;101493.00;;;;4989534;28;20196;-70
2023/05/05 12:32:28;;;;;;;0.10;0.10;;;21.70;99.90;25.00;101505.00;;;;4994171;28;20227;-70
2023/05/05 12:35:12;;;;;;;0.40;0.40;;;21.40;99.90;21.90;101521.00;;;;4993215;28;20661;-69
2023/05/05 12:38:07;;;;;;;0.88;0.35;;;20.20;99.90;21.30;101436.00;;;;5008404;28;20188;-70
2023/05/05 12:44:43;;;;;;;0.10;0.10;;;19.00;99.90;21.60;101429.00;;;;4973793;28;20677;-70
2023/05/05 12:47:32;;;;;;;0.10;0.10;;;19.00;99.90;23.00;101447.00;;;;4957572;28;20602;-70
2023/05/05 12:50:31;;;;;;;0.10;0.10;;;19.40;99.90;22.80;101451.00;;;;4916252;29;20199;-70
2023/05/05 12:53:26;;;;;;;0.68;0.68;;;19.40;99.90;22.00;101487.00;;;;4887277;29;20214;-70
2023/05/05 12:56:32;;;;;;;0.20;0.20;;;19.60;99.90;23.20;101456.00;;;;4950179;28;20196;-70
2023/05/05 12:59:20;;;;;;;1.35;0.98;;;19.60;99.90;21.50;101489.00;;;;4963417;28;20244;-70
2023/05/05 13:02:18;;;;;;;0.22;0.22;;;19.40;99.90;21.50;101494.00;;;;4971857;28;20614;-70
2023/05/05 13:05:02;;;;;;;0.10;0.10;;;19.20;99.90;22.20;101482.00;;;;4964520;28;20667;-70
2023/05/05 13:07:57;;;;;;;0.70;0.63;;;19.10;99.90;22.10;101484.00;;;;4956883;28;20201;-70
2023/05/05 13:10:59;;;;;;;0.17;0.17;;;19.30;99.90;22.50;101496.00;;;;4957201;28;20613;-70
2023/05/05 13:13:54;;;;;;;0.28;0.28;;;19.40;99.90;22.60;101496.00;;;;4972613;28;20231;-70
2023/05/05 13:16:49;;;;;;;0.13;0.13;;;19.60;99.90;23.60;101495.00;;;;4929390;28;20232;-70
2023/05/05 13:19:47;;;;;;;0.65;0.50;;;20.20;99.90;21.80;101505.00;;;;4967669;28;20196;-70
2023/05/05 13:22:54;;;;;;;0.20;0.20;;;19.70;99.90;22.30;101525.00;;;;4991441;28;20196;-70
2023/05/05 13:25:49;;;;;;;1.25;1.13;;;19.60;99.90;22.00;101510.00;;;;4991931;28;20199;-70
2023/05/05 13:28:52;;;;;;;1.70;0.88;;;19.40;99.90;22.20;101456.00;;;;4965863;28;20586;-70
2023/05/05 13:31:45;;;;;;;0.25;0.25;;;19.60;99.90;21.10;101503.00;;;;4990868;28;20234;-70
2023/05/05 13:34:48;;;;;;;0.10;0.10;;;19.00;99.90;23.80;101494.00;;;;4993316;28;20646;-70
2023/05/05 13:37:36;;;;;;;0.30;0.30;;;19.60;99.90;23.20;101498.00;;;;4987984;28;20244;-70
2023/05/05 13:40:27;;;;;;;0.15;0.15;;;19.80;99.90;24.80;101447.00;;;;4994318;28;20206;-70
2023/05/05 13:43:16;;;;;;;0.10;0.10;;;20.60;99.90;25.60;101508.00;;;;4989205;28;20192;-70
2023/05/05 13:46:14;;;;;;;0.10;0.10;;;21.20;99.90;24.50;101515.00;;;;4984774;28;20184;-70
2023/05/05 13:49:08;;;;;;;0.20;0.20;;;20.70;99.90;25.20;101503.00;;;;4977521;28;20196;-71
2023/05/05 13:51:58;;;;;;;0.10;0.10;;;21.30;99.90;25.10;101486.00;;;;4918403;29;20214;-70
2023/05/05 13:55:02;;;;;;;0.77;0.65;;;21.20;99.90;25.20;101504.00;;;;4883367;29;20228;-71
2023/05/05 13:57:55;;;;;;;0.10;0.10;;;21.70;99.90;24.60;101503.00;;;;4883098;29;20224;-71
2023/05/05 14:00:59;;;;;;;1.10;0.73;;;21.00;99.90;23.90;101510.00;;;;4999513;28;20234;-70
2023/05/05 14:03:51;;;;;;;0.65;0.65;;;20.90;99.90;22.30;101532.00;;;;4997417;28;20216;-70
2023/05/05 14:06:40;;;;;;;5.85;0.38;;;20.10;99.90;24.50;101492.00;;;;4951880;28;20206;-71
2023/05/05 14:09:31;;;;;;;0.20;0.20;;;20.60;99.90;25.50;101459.00;;;;4917413;29;20210;-70
2023/05/05 14:12:17;;;;;;;0.10;0.10;;;21.30;99.90;26.30;101454.00;;;;4983432;28;20219;-71
2023/05/05 14:15:06;;;;;;;0.10;0.10;;;21.90;99.90;26.70;101434.00;;;;4994186;28;20713;-70
2023/05/05 14:18:01;;;;;;;0.10;0.10;;;22.30;99.90;26.30;101426.00;;;;4980669;28;20239;-71
2023/05/05 14:20:56;;;;;;;0.10;0.10;;;22.50;99.90;25.90;101439.00;;;;4998892;28;20204;-70
2023/05/05 14:24:03;;;;;;;0.10;0.10;;;21.80;99.90;25.20;101458.00;;;;5002906;28;20693;-71
2023/05/05 14:27:07;;;;;;;0.10;0.10;;;21.30;99.90;25.10;101405.00;;;;4990901;28;20207;-70
2023/05/05 14:29:55;;;;;;;2.38;0.80;;;21.60;99.90;22.40;101522.00;;;;5008915;28;20242;-70
2023/05/05 14:33:04;;;;;;;0.40;0.40;;;20.50;99.90;21.90;101549.00;;;;4971808;28;20236;-70
2023/05/05 14:35:56;;;;;;;0.10;0.10;;;19.90;99.90;24.40;101485.00;;;;5020558;28;20184;-70
2023/05/05 14:38:48;;;;;;;0.95;0.90;;;20.40;99.90;23.60;101446.00;;;;4952373;29;20193;-70
2023/05/05 14:41:36;;;;;;;0.25;0.25;;;20.60;99.90;23.70;101506.00;;;;4933487;29;20643;-69
2023/05/05 14:44:28;;;;;;;0.10;0.10;;;20.60;99.90;23.10;101494.00;;;;4933512;29;20231;-70
2023/05/05 14:47:26;;;;;;;0.30;0.30;;;20.10;99.90;23.00;101518.00;;;;4933098;29;20289;-70
2023/05/05 14:50:21;;;;;;;0.10;0.10;;;20.10;99.90;23.20;101444.00;;;;4925821;29;20237;-70
2023/05/05 14:52:59;;;;;;;0.10;0.10;;;19.90;99.90;23.30;101489.00;;;;4913269;29;20222;-70
2023/05/05 14:55:53;;;;;;;0.20;0.20;;;20.10;99.90;22.90;101487.00;;;;4933159;29;20198;-70
2023/05/05 14:58:51;;;;;;;3.30;0.30;;;20.30;99.90;21.90;101521.00;;;;4917361;29;20298;-70
2023/05/05 15:01:57;;;;;;;0.10;0.10;;;19.80;99.90;23.40;101494.00;;;;4901665;29;20661;-71
2023/05/05 15:04:52;;;;;;;0.10;0.10;;;20.10;99.90;22.80;101509.00;;;;4909368;29;20194;-70
2023/05/05 15:07:43;;;;;;;0.10;0.10;;;20.10;99.90;23.90;101487.00;;;;4903559;29;20198;-71
2023/05/05 15:10:38;;;;;;;0.10;0.10;;;20.20;99.90;25.10;101459.00;;;;4901633;29;20277;-70
2023/05/05 15:13:42;;;;;;;0.10;0.10;;;20.80;99.90;25.90;101441.00;;;;4932890;29;20749;-70
2023/05/05 15:16:51;;;;;;;5.38;0.43;;;21.20;99.90;24.70;101458.00;;;;4916069;29;20198;-71
2023/05/05 15:19:55;;;;;;;0.10;0.10;;;21.50;99.90;24.00;101477.00;;;;4900264;29;20198;-71
2023/05/05 15:23:04;;;;;;;0.10;0.10;;;20.90;99.90;25.50;101454.00;;;;4935902;29;20296;-70
2023/05/05 15:26:19;;;;;;;2.60;0.60;;;21.20;99.90;23.50;101500.00;;;;4919577;29;20695;-71
2023/05/05 15:29:14;;;;;;;0.30;0.30;;;20.50;99.90;22.40;101515.00;;;;4936386;29;20569;-70
2023/05/05 15:32:25;;;;;;;0.68;0.68;;;20.10;99.90;22.60;101518.00;;;;4915828;29;20232;-70
2023/05/05 15:35:35;;;;;;;0.20;0.20;;;19.90;99.90;23.30;101505.00;;;;4934421;28;20199;-71
2023/05/05 15:38:28;;;;;;;0.17;0.17;;;20.00;99.90;24.60;101432.00;;;;4978538;28;20189;-71
2023/05/05 15:41:43;;;;;;;0.10;0.10;;;20.40;99.90;24.70;101482.00;;;;4990916;28;20183;-70
2023/05/05 15:44:39;;;;;;;0.30;0.30;;;20.50;99.90;22.50;101485.00;;;;4996620;28;20670;-70
2023/05/05 15:47:49;;;;;;;0.10;0.10;;;20.10;99.90;24.00;101497.00;;;;5011456;28;20191;-70
2023/05/05 15:50:56;;;;;;;0.10;0.10;;;20.00;99.90;24.30;101477.00;;;;4995011;28;20276;-72
2023/05/05 15:54:00;;;;;;;0.20;0.20;;;20.30;99.90;24.00;101494.00;;;;5008302;28;20201;-70
2023/05/05 15:57:10;;;;;;;0.10;0.10;;;20.50;99.90;24.50;101468.00;;;;4993868;28;20299;-70
2023/05/05 16:00:06;;;;;;;0.10;0.10;;;20.60;99.90;23.60;101489.00;;;;4996372;28;20188;-70
2023/05/05 16:02:55;;;;;;;0.30;0.30;;;20.70;99.90;23.60;101500.00;;;;5011521;28;20215;-70
2023/05/05 16:06:04;;;;;;;0.10;0.10;;;20.50;99.90;22.50;101505.00;;;;4973778;28;20212;-70
2023/05/05 16:08:58;;;;;;;0.10;0.10;;;20.00;99.90;22.70;101497.00;;;;4959774;28;20197;-70
2023/05/05 16:12:07;;;;;;;0.10;0.10;;;20.00;99.90;24.40;101476.00;;;;4967954;28;20768;-70
2023/05/05 16:15:02;;;;;;;0.57;0.57;;;20.40;99.90;24.10;101424.00;;;;4990554;28;20200;-70
2023/05/05 16:17:39;;;;;;;0.43;0.43;;;20.70;99.90;22.80;101503.00;;;;5003472;28;20200;-70
2023/05/05 16:20:35;;;;;;;0.77;0.77;;;20.40;99.90;23.40;101490.00;;;;4995181;28;20192;-70
2023/05/05 16:23:28;;;;;;;0.10;0.10;;;20.10;99.90;24.90;101481.00;;;;5027092;28;20184;-70
2023/05/05 16:26:18;;;;;;;0.10;0.10;;;20.50;99.90;23.30;101506.00;;;;4954603;29;20422;-70
2023/05/05 16:29:17;;;;;;;0.20;0.20;;;20.40;99.90;23.80;101501.00;;;;4938701;29;20197;-70
2023/05/05 16:32:08;;;;;;;0.10;0.10;;;20.50;99.90;23.50;101502.00;;;;4935612;29;20229;-70
2023/05/05 16:34:57;;;;;;;0.20;0.20;;;20.50;99.90;24.30;101499.00;;;;4972532;28;20205;-70
2023/05/05 16:37:46;;;;;;;0.10;0.10;;;20.30;99.90;25.40;101462.00;;;;4990831;28;20204;-70
2023/05/05 16:40:50;;;;;;;0.32;0.32;;;21.00;99.90;22.70;101449.00;;;;4996757;28;20223;-70
2023/05/05 16:43:46;;;;;;;0.65;0.65;;;20.20;99.90;23.50;101495.00;;;;5003129;28;20700;-70
2023/05/05 16:46:44;;;;;;;0.20;0.20;;;20.20;99.90;23.50;101484.00;;;;5023814;28;20216;-70
2023/05/05 16:49:53;;;;;;;0.85;0.85;;;20.20;99.90;23.60;101510.00;;;;4983546;28;20296;-70
2023/05/05 16:53:00;;;;;;;0.10;0.10;;;20.20;99.90;24.40;101502.00;;;;4990256;28;20693;-70
2023/05/05 16:55:49;;;;;;;0.10;0.10;;;20.30;99.90;25.00;101494.00;;;;4981476;28;20290;-70
2023/05/05 16:58:40;;;;;;;0.10;0.10;;;20.80;99.90;25.70;101476.00;;;;4994779;28;20184;-70
2023/05/05 17:01:47;;;;;;;0.20;0.20;;;21.30;99.90;23.70;101500.00;;;;4991009;28;20192;-70
2023/05/05 17:04:43;;;;;;;0.10;0.10;;;21.20;99.90;23.10;101536.00;;;;4990245;28;20199;-70
2023/05/05 17:07:49;;;;;;;0.30;0.30;;;20.10;99.90;23.00;101537.00;;;;4993653;28;20180;-70
2023/05/05 17:10:41;;;;;;;0.20;0.20;;;20.00;99.90;23.10;101523.00;;;;4992000;28;20195;-70
2023/05/05 17:13:28;;;;;;;0.10;0.10;;;19.90;99.90;23.40;101527.00;;;;4966939;28;20847;-70
2023/05/05 17:16:16;;;;;;;0.10;0.10;;;19.80;99.90;24.00;101511.00;;;;4973561;28;20188;-70
2023/05/05 17:19:06;;;;;;;0.10;0.10;;;20.20;99.90;24.40;101495.00;;;;4972309;28;20204;-70
2023/05/05 17:22:01;;;;;;;0.30;0.30;;;20.50;99.90;24.00;101486.00;;;;4899704;29;20257;-70
2023/05/05 17:24:57;;;;;;;0.20;0.20;;;20.40;99.90;21.90;101538.00;;;;4928650;28;20260;-70
2023/05/05 17:27:52;;;;;;;0.82;0.77;;;19.50;99.90;22.50;101522.00;;;;4964489;28;20200;-70
2023/05/05 17:30:41;;;;;;;0.10;0.10;;;19.40;99.90;23.10;101462.00;;;;4966569;28;20616;-70
2023/05/05 17:33:37;;;;;;;0.10;0.10;;;19.50;99.90;24.40;101495.00;;;;4947902;28;20316;-70
2023/05/05 17:36:32;;;;;;;0.10;0.10;;;20.00;99.90;24.30;101500.00;;;;4949561;28;20232;-70
2023/05/05 17:39:27;;;;;;;0.10;0.10;;;20.30;99.90;23.70;101508.00;;;;4972630;28;20322;-70
2023/05/05 17:42:38;;;;;;;0.10;0.10;;;20.30;99.90;23.50;101507.00;;;;4955738;28;20268;-70
2023/05/05 17:45:27;;;;;;;47.80;6.32;;;19.80;99.90;22.20;101529.00;;;;5004759;28;20254;-70
2023/05/05 17:48:22;;;;;;;0.10;0.10;;;19.30;99.90;22.80;101530.00;;;;5025810;28;20219;-70
2023/05/05 17:51:11;;;;;;;0.10;0.10;;;19.30;99.90;23.00;101494.00;;;;4987331;28;20227;-69
2023/05/05 17:54:01;;;;;;;0.15;0.15;;;19.50;99.90;22.90;101512.00;;;;4952873;28;20288;-70
2023/05/05 17:57:09;;;;;;;0.10;0.10;;;19.30;99.90;23.70;101497.00;;;;4973321;28;20726;-70
2023/05/05 18:00:13;;;;;;;0.10;0.10;;;19.60;99.90;23.00;101514.00;;;;4992674;28;20682;-70
2023/05/05 18:03:20;;;;;;;3.95;1.55;;;19.50;99.90;22.40;101523.00;;;;4991667;28;20716;-69
2023/05/05 18:06:19;;;;;;;0.10;0.10;;;19.10;99.90;23.10;101514.00;;;;4985278;28;20202;-69
2023/05/05 18:09:12;;;;;;;0.50;0.50;;;19.20;99.90;23.00;101503.00;;;;4979859;28;20176;-69
2023/05/05 18:12:07;;;;;;;0.25;0.25;;;19.30;99.90;22.40;101523.00;;;;5024088;28;20625;-69
2023/05/05 18:14:59;;;;;;;0.25;0.25;;;19.20;99.90;21.70;101527.00;;;;4997318;28;20667;-69
2023/05/05 18:18:12;;;;;;;0.10;0.10;;;19.00;99.90;22.20;101517.00;;;;4987320;28;20294;-69
2023/05/05 18:20:53;;;;;;;0.10;0.10;;;18.80;99.90;23.80;101453.00;;;;5002199;28;20601;-70
2023/05/05 18:23:42;;;;;;;0.10;0.10;;;19.30;99.90;22.40;101527.00;;;;4982822;28;20263;-70
2023/05/05 18:26:30;;;;;;;0.10;0.10;;;19.20;99.90;21.80;101517.00;;;;4990830;28;20274;-71
2023/05/05 18:29:20;;;;;;;0.10;0.10;;;18.90;99.90;22.90;101500.00;;;;5008598;28;20220;-70
2023/05/05 18:32:11;;;;;;;0.10;0.10;;;18.90;99.90;22.10;101513.00;;;;4953089;28;20309;-70
2023/05/05 18:35:21;;;;;;;0.10;0.10;;;19.00;99.90;23.60;101499.00;;;;4953208;29;20228;-70
2023/05/05 18:38:09;;;;;;;0.10;0.10;;;19.10;99.90;23.50;101511.00;;;;4921059;29;20204;-70
2023/05/05 18:40:56;;;;;;;0.10;0.10;;;19.40;99.90;23.30;101508.00;;;;4914750;29;20265;-70
2023/05/05 18:44:05;;;;;;;0.10;0.10;;;19.30;99.90;23.40;101514.00;;;;4861388;29;20204;-70
2023/05/05 18:47:02;;;;;;;0.32;0.32;;;19.40;99.90;21.80;101534.00;;;;4876845;29;20215;-70
2023/05/05 18:50:14;;;;;;;0.20;0.20;;;18.90;99.90;21.80;101479.00;;;;4934012;29;20208;-70
2023/05/05 18:53:05;;;;;;;0.13;0.13;;;18.50;99.90;22.20;101486.00;;;;4937217;29;20249;-70
2023/05/05 18:56:04;;;;;;;0.10;0.10;;;18.40;99.90;22.40;101494.00;;;;4951295;29;20667;-70
2023/05/05 18:59:29;;;;;;;0.10;0.10;;;18.50;99.90;21.90;101500.00;;;;4940758;29;20193;-70
2023/05/05 19:02:44;;;;;;;0.13;0.13;;;18.50;99.90;22.40;101456.00;;;;4939625;28;20204;-70
2023/05/05 19:05:41;;;;;;;0.20;0.20;;;18.50;99.90;22.80;101442.00;;;;4940128;29;20219;-70
2023/05/05 19:08:40;;;;;;;0.70;0.70;;;18.60;99.90;22.50;101509.00;;;;4946044;28;20551;-70
2023/05/05 19:11:33;;;;;;;3.93;3.83;;;18.60;99.90;22.80;101509.00;;;;4996717;28;20180;-70
2023/05/05 19:14:55;;;;;;;0.20;0.20;;;18.60;99.90;22.40;101525.00;;;;4991947;28;20263;-69
2023/05/05 19:18:04;;;;;;;0.10;0.10;;;18.60;99.90;22.40;101525.00;;;;4991711;28;20666;-70
2023/05/05 19:21:10;;;;;;;0.20;0.20;;;18.40;99.90;21.70;101518.00;;;;4993663;28;20202;-70
2023/05/05 19:24:16;;;;;;;0.10;0.10;;;18.20;99.90;22.30;101516.00;;;;4995086;28;20198;-70
2023/05/05 19:27:28;;;;;;;0.17;0.17;;;18.20;99.90;22.30;101499.00;;;;4996926;28;20202;-70
2023/05/05 19:30:34;;;;;;;0.10;0.10;;;18.20;99.90;22.00;101526.00;;;;4981638;28;20199;-70
2023/05/05 19:33:30;;;;;;;0.10;0.10;;;18.10;99.90;21.80;101461.00;;;;4978113;28;20234;-70
2023/05/05 19:36:38;;;;;;;0.20;0.20;;;18.10;99.90;21.90;101528.00;;;;4995225;28;20290;-70
2023/05/05 19:39:49;;;;;;;0.20;0.20;;;17.90;99.90;22.50;101528.00;;;;4989725;28;20205;-70
2023/05/05 19:42:56;;;;;;;0.10;0.10;;;18.20;99.90;22.40;101536.00;;;;4991696;28;20274;-70
2023/05/05 19:46:02;;;;;;;0.20;0.20;;;18.20;99.90;22.00;101545.00;;;;4993339;28;20218;-71
2023/05/05 19:49:13;;;;;;;0.10;0.10;;;18.10;99.90;22.70;101543.00;;;;5011297;28;20214;-71
2023/05/05 19:52:21;;;;;;;0.20;0.20;;;18.20;99.90;22.20;101560.00;;;;4995151;28;20210;-71
2023/05/05 19:55:23;;;;;;;0.20;0.20;;;18.30;99.90;22.10;101561.00;;;;5027449;28;20218;-71
2023/05/05 19:58:19;;;;;;;0.10;0.10;;;18.20;99.90;22.40;101554.00;;;;4994346;28;20682;-71
2023/05/05 20:01:03;;;;;;;0.10;0.10;;;18.20;99.90;22.20;101563.00;;;;5005302;28;20218;-71